createdAt,value
2023-03-03T00:01:47.047Z,102439.59
2023-03-03T00:04:14.777Z,102440.72
2023-03-03T00:06:42.398Z,102441.81
2023-03-03T00:09:09.956Z,102437.59
2023-03-03T00:11:37.561Z,102435.06
2023-03-03T00:14:20.226Z,102439.72
2023-03-03T00:16:49.160Z,102438.13
2023-03-03T00:19:20.242Z,102442.78
2023-03-03T00:21:50.065Z,102445.75
2023-03-03T00:24:23.680Z,102453.03
2023-03-03T00:26:52.875Z,102445.53
2023-03-03T00:29:30.691Z,102442.22
2023-03-03T00:32:11.125Z,102440.06
2023-03-03T00:34:39.083Z,102442.50
2023-03-03T00:37:24.487Z,102445.97
2023-03-03T00:39:52.079Z,102443.25
2023-03-03T00:42:20.381Z,102442.56
2023-03-03T00:44:49.970Z,102443.59
2023-03-03T00:47:31.036Z,102443.25
2023-03-03T00:50:42.695Z,102454.59
2023-03-03T00:53:14.626Z,102447.56
2023-03-03T00:55:42.262Z,102448.16
2023-03-03T00:58:10.030Z,102446.69
2023-03-03T01:00:40.136Z,102451.41
2023-03-03T01:03:10.071Z,102440.66
2023-03-03T01:05:37.994Z,102451.63
2023-03-03T01:08:06.376Z,102436.66
2023-03-03T01:10:36.931Z,102444.94
2023-03-03T01:13:05.607Z,102441.09
2023-03-03T01:15:33.335Z,102436.72
2023-03-03T01:18:02.432Z,102438.38
2023-03-03T01:20:30.077Z,102442.03
2023-03-03T01:22:57.767Z,102443.63
2023-03-03T01:25:25.618Z,102439.91
2023-03-03T01:27:53.331Z,102427.63
2023-03-03T01:30:21.030Z,102421.06
2023-03-03T01:32:48.697Z,102419.69
2023-03-03T01:35:17.909Z,102409.94
2023-03-03T01:37:45.567Z,102414.72
2023-03-03T01:40:16.509Z,102411.81
2023-03-03T01:42:44.266Z,102411.81
2023-03-03T01:45:16.889Z,102404.84
2023-03-03T01:47:49.716Z,102407.22
2023-03-03T01:50:27.636Z,102405.22
2023-03-03T01:52:56.472Z,102399.78
2023-03-03T01:55:29.445Z,102396.03
2023-03-03T01:58:01.723Z,102394.78
2023-03-03T02:00:31.225Z,102394.41
2023-03-03T02:02:59.158Z,102398.31
2023-03-03T02:05:29.090Z,102408.06
2023-03-03T02:07:56.813Z,102401.13
2023-03-03T02:10:24.906Z,102408.25
2023-03-03T02:12:54.224Z,102415.19
2023-03-03T02:15:23.966Z,102418.00
2023-03-03T02:17:54.577Z,102416.13
2023-03-03T02:20:37.040Z,102415.19
2023-03-03T02:23:12.338Z,102419.47
2023-03-03T02:25:50.549Z,102419.06
2023-03-03T02:28:19.623Z,102422.81
2023-03-03T02:30:47.842Z,102425.84
2023-03-03T02:33:15.684Z,102423.03
2023-03-03T02:35:43.798Z,102411.59
2023-03-03T02:38:20.419Z,102409.16
2023-03-03T02:41:00.236Z,102403.16
2023-03-03T02:43:37.453Z,102399.97
2023-03-03T02:46:05.283Z,102397.53
2023-03-03T02:48:32.900Z,102392.44
2023-03-03T02:51:00.496Z,102392.03
2023-03-03T02:53:28.496Z,102397.00
2023-03-03T02:55:56.127Z,102392.19
2023-03-03T02:58:23.697Z,102389.00
2023-03-03T03:00:52.888Z,102385.69
2023-03-03T03:03:20.757Z,102384.09
2023-03-03T03:05:48.347Z,102379.78
2023-03-03T03:08:16.152Z,102382.41
2023-03-03T03:10:43.885Z,102385.50
2023-03-03T03:13:11.938Z,102383.28
2023-03-03T03:15:40.592Z,102382.97
2023-03-03T03:18:09.612Z,102389.56
2023-03-03T03:20:37.808Z,102390.88
2023-03-03T03:23:05.549Z,102382.31
2023-03-03T03:25:33.209Z,102378.00
2023-03-03T03:28:00.887Z,102381.31
2023-03-03T03:30:28.734Z,102382.56
2023-03-03T03:32:56.411Z,102377.88
2023-03-03T03:35:25.429Z,102375.59
2023-03-03T03:37:53.126Z,102362.81
2023-03-03T03:40:20.762Z,102361.91
2023-03-03T03:42:48.369Z,102360.47
2023-03-03T03:45:15.996Z,102370.41
2023-03-03T03:47:43.697Z,102370.59
2023-03-03T03:50:11.977Z,102370.13
2023-03-03T03:52:41.245Z,102368.75
2023-03-03T03:55:09.780Z,102374.28
2023-03-03T03:57:37.593Z,102365.13
2023-03-03T04:00:05.872Z,102361.53
2023-03-03T04:02:33.593Z,102373.34
2023-03-03T04:05:01.312Z,102373.16
2023-03-03T04:07:29.152Z,102373.81
2023-03-03T04:09:58.101Z,102369.53
2023-03-03T04:12:25.813Z,102361.53
2023-03-03T04:14:53.399Z,102368.66
2023-03-03T04:17:24.411Z,102366.22
2023-03-03T04:19:53.892Z,102374.19
2023-03-03T04:22:22.270Z,102370.72
2023-03-03T04:24:50.043Z,102372.59
2023-03-03T04:27:18.978Z,102381.03
2023-03-03T04:29:46.543Z,102383.41
2023-03-03T04:32:14.277Z,102396.22
2023-03-03T04:34:42.011Z,102390.03
2023-03-03T04:37:09.625Z,102387.59
2023-03-03T04:39:37.955Z,102384.63
2023-03-03T04:42:05.873Z,102378.97
2023-03-03T04:44:34.847Z,102367.00
2023-03-03T04:47:02.666Z,102358.44
2023-03-03T04:49:30.294Z,102360.41
2023-03-03T04:51:58.197Z,102344.19
2023-03-03T04:54:25.837Z,102337.72
2023-03-03T04:56:53.509Z,102337.25
2023-03-03T04:59:21.126Z,102345.41
2023-03-03T05:01:51.068Z,102364.16
2023-03-03T05:04:18.814Z,102367.13
2023-03-03T05:06:46.490Z,102369.28
2023-03-03T05:09:14.154Z,102370.47
2023-03-03T05:11:41.833Z,102377.00
2023-03-03T05:14:09.492Z,102381.03
2023-03-03T05:16:37.791Z,102375.38
2023-03-03T05:19:06.886Z,102379.28
2023-03-03T05:21:35.677Z,102380.66
2023-03-03T05:24:04.673Z,102379.34
2023-03-03T05:26:32.362Z,102385.94
2023-03-03T05:28:59.950Z,102377.50
2023-03-03T05:31:27.816Z,102369.78
2023-03-03T05:33:55.608Z,102382.22
2023-03-03T05:36:24.694Z,102378.97
2023-03-03T05:38:52.742Z,102382.56
2023-03-03T05:41:20.529Z,102377.50
2023-03-03T05:43:48.213Z,102383.69
2023-03-03T05:46:16.067Z,102374.97
2023-03-03T05:48:43.880Z,102388.81
2023-03-03T05:51:11.571Z,102390.34
2023-03-03T05:53:40.662Z,102386.53
2023-03-03T05:56:08.702Z,102383.75
2023-03-03T05:58:37.201Z,102384.44
2023-03-03T06:01:05.175Z,102386.94
2023-03-03T06:03:33.356Z,102395.59
2023-03-03T06:06:00.978Z,102393.72
2023-03-03T06:08:29.570Z,102390.06
2023-03-03T06:10:58.684Z,102392.63
2023-03-03T06:13:26.322Z,102390.00
2023-03-03T06:15:53.928Z,102388.19
2023-03-03T06:18:21.624Z,102385.41
2023-03-03T06:20:52.966Z,102394.97
2023-03-03T06:23:20.714Z,102404.44
2023-03-03T06:25:48.467Z,102394.56
2023-03-03T06:28:17.447Z,102393.25
2023-03-03T06:30:45.025Z,102407.72
2023-03-03T06:33:12.829Z,102400.41
2023-03-03T06:35:40.497Z,102403.53
2023-03-03T06:38:08.127Z,102401.47
2023-03-03T06:40:35.798Z,102400.28
2023-03-03T06:43:04.247Z,102391.22
2023-03-03T06:45:33.257Z,102396.19
2023-03-03T06:48:00.885Z,102385.50
2023-03-03T06:50:28.921Z,102396.56
2023-03-03T06:53:03.986Z,102397.97
2023-03-03T06:55:31.966Z,102396.78
2023-03-03T06:58:00.537Z,102395.75
2023-03-03T07:00:31.140Z,102378.78
2023-03-03T07:03:03.514Z,102375.81
2023-03-03T07:05:31.217Z,102383.31
2023-03-03T07:07:59.199Z,102385.25
2023-03-03T07:10:28.662Z,102389.47
2023-03-03T07:13:03.600Z,102397.00
2023-03-03T07:15:35.156Z,102394.53
2023-03-03T07:18:09.617Z,102396.59
2023-03-03T07:20:41.180Z,102398.78
2023-03-03T07:23:20.760Z,102383.47
2023-03-03T07:25:48.565Z,102387.31
2023-03-03T07:28:23.623Z,102382.94
2023-03-03T07:30:52.109Z,102375.44
2023-03-03T07:33:27.554Z,102381.97
2023-03-03T07:35:57.399Z,102374.16
2023-03-03T07:38:31.743Z,102369.44
2023-03-03T07:41:01.972Z,102371.81
2023-03-03T07:43:37.396Z,102367.63
2023-03-03T07:46:22.854Z,102373.88
2023-03-03T07:48:53.468Z,102373.16
2023-03-03T07:51:25.263Z,102374.78
2023-03-03T07:53:54.117Z,102378.88
2023-03-03T07:56:30.523Z,102379.41
2023-03-03T07:58:59.400Z,102377.84
2023-03-03T08:01:39.682Z,102373.81
2023-03-03T08:04:19.312Z,102383.25
2023-03-03T08:06:50.388Z,102383.25
2023-03-03T08:09:35.456Z,102385.22
2023-03-03T08:12:19.497Z,102388.28
2023-03-03T08:14:48.240Z,102393.63
2023-03-03T08:17:22.045Z,102389.63
2023-03-03T08:19:52.175Z,102391.69
2023-03-03T08:22:25.874Z,102385.03
2023-03-03T08:24:53.578Z,102383.41
2023-03-03T08:27:21.223Z,102381.63
2023-03-03T08:29:50.050Z,102392.44
2023-03-03T08:32:17.771Z,102374.22
2023-03-03T08:34:45.422Z,102378.41
2023-03-03T08:37:14.432Z,102379.97
2023-03-03T08:39:42.966Z,102386.09
2023-03-03T08:42:10.639Z,102383.97
2023-03-03T08:44:38.304Z,102388.78
2023-03-03T08:47:05.961Z,102376.88
2023-03-03T08:49:33.576Z,102375.09
2023-03-03T08:52:01.578Z,102371.66
2023-03-03T08:54:30.832Z,102370.50
2023-03-03T08:56:58.465Z,102370.75
2023-03-03T08:59:26.126Z,102371.50
2023-03-03T09:01:53.782Z,102373.06
2023-03-03T09:04:21.488Z,102367.53
2023-03-03T09:06:49.546Z,102368.13
2023-03-03T09:09:17.174Z,102361.88
2023-03-03T09:11:47.180Z,102360.66
2023-03-03T09:14:16.635Z,102358.34
2023-03-03T09:16:49.213Z,102359.06
2023-03-03T09:19:26.084Z,102363.84
2023-03-03T09:21:55.656Z,102370.59
2023-03-03T09:24:27.609Z,102371.31
2023-03-03T09:26:58.793Z,102370.81
2023-03-03T09:29:29.032Z,102370.41
2023-03-03T09:31:59.015Z,102370.91
2023-03-03T09:34:36.497Z,102362.09
2023-03-03T09:37:19.590Z,102358.66
2023-03-03T09:39:50.734Z,102357.34
2023-03-03T09:42:38.733Z,102364.88
2023-03-03T09:45:49.969Z,102350.34
2023-03-03T09:48:41.369Z,102355.59
2023-03-03T09:51:20.760Z,102356.50
2023-03-03T09:54:01.575Z,102350.53
2023-03-03T09:56:35.279Z,102350.47
2023-03-03T09:59:19.056Z,102349.81
2023-03-03T10:01:58.880Z,102339.38
2023-03-03T10:04:44.612Z,102334.00
2023-03-03T10:07:39.806Z,102345.34
2023-03-03T10:10:30.839Z,102331.97
2023-03-03T10:13:10.912Z,102331.44
2023-03-03T10:15:49.077Z,102336.06
2023-03-03T10:18:32.233Z,102324.31
2023-03-03T10:21:09.151Z,102329.91
2023-03-03T10:23:58.458Z,102323.25
2023-03-03T10:26:46.423Z,102333.84
2023-03-03T10:29:34.090Z,102332.47
2023-03-03T10:32:30.768Z,102325.25
2023-03-03T10:35:19.798Z,102323.69
2023-03-03T10:38:00.342Z,102322.72
2023-03-03T10:40:35.958Z,102327.88
2023-03-03T10:43:32.253Z,102315.88
2023-03-03T10:46:28.208Z,102318.91
2023-03-03T10:49:14.723Z,102315.88
2023-03-03T10:51:53.588Z,102313.34
2023-03-03T10:54:31.396Z,102314.03
2023-03-03T10:57:05.126Z,102300.75
2023-03-03T10:59:49.272Z,102298.41
2023-03-03T11:02:22.870Z,102302.44
2023-03-03T11:05:04.364Z,102306.66
2023-03-03T11:07:37.960Z,102296.16
2023-03-03T11:10:21.039Z,102297.53
2023-03-03T11:12:59.727Z,102293.47
2023-03-03T11:15:41.102Z,102281.31
2023-03-03T11:18:26.278Z,102273.72
2023-03-03T11:21:01.816Z,102274.41
2023-03-03T11:23:55.238Z,102263.88
2023-03-03T11:26:35.617Z,102264.88
2023-03-03T11:29:13.412Z,102263.19
2023-03-03T11:31:49.241Z,102269.19
2023-03-03T11:34:30.349Z,102265.59
2023-03-03T11:37:05.076Z,102267.16
2023-03-03T11:39:34.155Z,102268.69
2023-03-03T11:42:13.054Z,102266.84
2023-03-03T11:44:45.828Z,102276.78
2023-03-03T11:47:21.038Z,102266.41
2023-03-03T11:49:52.145Z,102278.00
2023-03-03T11:52:33.183Z,102267.66
2023-03-03T11:55:05.178Z,102265.84
2023-03-03T11:57:38.788Z,102262.22
2023-03-03T12:00:25.117Z,102257.34
2023-03-03T12:03:31.819Z,102258.63
2023-03-03T12:06:23.499Z,102250.25
2023-03-03T12:09:23.643Z,102254.84
2023-03-03T12:11:56.077Z,102254.25
2023-03-03T12:14:36.140Z,102251.19
2023-03-03T12:17:07.848Z,102237.78
2023-03-03T12:19:48.952Z,102235.38
2023-03-03T12:22:26.492Z,102239.81
2023-03-03T12:25:11.742Z,102236.59
2023-03-03T12:27:46.276Z,102228.72
2023-03-03T12:30:26.007Z,102224.69
2023-03-03T12:33:08.606Z,102227.56
2023-03-03T12:35:43.007Z,102216.50
2023-03-03T12:38:23.064Z,102218.41
2023-03-03T12:41:00.290Z,102205.81
2023-03-03T12:43:44.031Z,102209.94
2023-03-03T12:46:20.722Z,102210.59
2023-03-03T12:48:49.215Z,102200.34
2023-03-03T12:51:31.129Z,102200.66
2023-03-03T12:54:15.716Z,102193.16
2023-03-03T12:56:49.899Z,102197.72
2023-03-03T12:59:26.126Z,102195.19
2023-03-03T13:02:29.718Z,102204.63
2023-03-03T13:05:03.329Z,102195.50
2023-03-03T13:07:38.911Z,102189.72
2023-03-03T13:10:17.701Z,102191.69
2023-03-03T13:12:52.150Z,102182.03
2023-03-03T13:15:36.284Z,102172.16
2023-03-03T13:18:20.651Z,102167.69
2023-03-03T13:20:55.314Z,102175.75
2023-03-03T13:23:38.184Z,102175.50
2023-03-03T13:26:11.740Z,102180.16
2023-03-03T13:28:51.134Z,102165.19
2023-03-03T13:31:21.772Z,102168.78
2023-03-03T13:33:55.791Z,102162.69
2023-03-03T13:36:31.456Z,102163.41
2023-03-03T13:39:05.724Z,102162.50
2023-03-03T13:41:42.543Z,102145.50
2023-03-03T13:44:18.012Z,102150.66
2023-03-03T13:46:57.130Z,102157.72
2023-03-03T13:49:36.271Z,102147.34
2023-03-03T13:52:08.390Z,102149.38
2023-03-03T13:54:49.216Z,102135.41
2023-03-03T13:57:28.469Z,102133.41
2023-03-03T14:00:07.997Z,102130.16
2023-03-03T14:02:58.599Z,102134.09
2023-03-03T14:05:32.269Z,102130.50
2023-03-03T14:08:04.981Z,102125.19
2023-03-03T14:10:34.221Z,102125.78
2023-03-03T14:13:06.445Z,102119.00
2023-03-03T14:15:39.600Z,102119.47
2023-03-03T14:18:22.388Z,102116.56
2023-03-03T14:20:53.543Z,102113.09
2023-03-03T14:23:26.158Z,102115.16
2023-03-03T14:25:59.997Z,102104.84
2023-03-03T14:28:29.749Z,102110.63
2023-03-03T14:31:01.136Z,102102.03
2023-03-03T14:33:32.400Z,102102.69
2023-03-03T14:36:12.106Z,102100.16
2023-03-03T14:38:44.407Z,102091.75
2023-03-03T14:41:21.768Z,102093.13
2023-03-03T14:44:01.080Z,102093.88
2023-03-03T14:46:40.225Z,102088.97
2023-03-03T14:49:16.470Z,102095.00
2023-03-03T14:51:46.701Z,102086.56
2023-03-03T14:54:25.840Z,102079.41
2023-03-03T14:57:00.253Z,102084.22
2023-03-03T14:59:29.515Z,102082.06
2023-03-03T15:02:29.619Z,102077.03
2023-03-03T15:05:15.732Z,102077.03
2023-03-03T15:07:44.029Z,102080.88
2023-03-03T15:10:13.428Z,102073.94
2023-03-03T15:12:43.114Z,102064.75
2023-03-03T15:15:19.559Z,102064.63
2023-03-03T15:18:02.506Z,102061.13
2023-03-03T15:20:43.105Z,102052.06
2023-03-03T15:23:34.904Z,102051.06
2023-03-03T15:26:09.627Z,102043.13
2023-03-03T15:28:52.710Z,102041.38
2023-03-03T15:31:32.463Z,102048.41
2023-03-03T15:34:23.917Z,102041.25
2023-03-03T15:36:58.115Z,102040.16
2023-03-03T15:39:36.589Z,102038.66
2023-03-03T15:42:06.991Z,102032.09
2023-03-03T15:44:49.812Z,102029.75
2023-03-03T15:47:36.485Z,102031.56
2023-03-03T15:50:25.368Z,102025.69
2023-03-03T15:53:03.086Z,102027.78
2023-03-03T15:55:44.150Z,102026.69
2023-03-03T15:58:34.274Z,102018.19
2023-03-03T16:01:11.159Z,102014.41
2023-03-03T16:03:46.418Z,102011.75
2023-03-03T16:06:20.424Z,102009.13
2023-03-03T16:08:59.606Z,102003.84
2023-03-03T16:11:35.228Z,102007.03
2023-03-03T16:14:19.566Z,102010.94
2023-03-03T16:16:52.824Z,102003.69
2023-03-03T16:19:30.664Z,102000.47
2023-03-03T16:22:16.173Z,102007.72
2023-03-03T16:24:58.680Z,102008.09
2023-03-03T16:27:33.319Z,102011.19
2023-03-03T16:30:12.720Z,101999.03
2023-03-03T16:32:44.915Z,102005.97
2023-03-03T16:35:24.293Z,102003.97
2023-03-03T16:37:59.625Z,102004.38
2023-03-03T16:40:31.369Z,102007.81
2023-03-03T16:43:09.175Z,102004.88
2023-03-03T16:45:39.521Z,102003.03
2023-03-03T16:48:20.852Z,102001.44
2023-03-03T16:50:58.926Z,102005.47
2023-03-03T16:53:44.244Z,102003.34
2023-03-03T16:56:17.034Z,101999.94
2023-03-03T16:59:05.869Z,102000.56
2023-03-03T17:01:41.976Z,102001.34
2023-03-03T17:04:15.374Z,102006.59
2023-03-03T17:06:50.176Z,102007.81
2023-03-03T17:09:36.296Z,102011.81
2023-03-03T17:12:18.379Z,102017.63
2023-03-03T17:15:16.283Z,102018.13
2023-03-03T17:17:48.698Z,102018.50
2023-03-03T17:20:32.069Z,102025.97
2023-03-03T17:23:16.265Z,102021.88
2023-03-03T17:25:54.031Z,102016.03
2023-03-03T17:28:35.774Z,102019.63
2023-03-03T17:31:11.409Z,102015.44
2023-03-03T17:34:04.622Z,102022.94
2023-03-03T17:36:49.846Z,102025.09
2023-03-03T17:39:39.766Z,102028.22
2023-03-03T17:42:18.826Z,102020.69
2023-03-03T17:44:57.229Z,102014.81
2023-03-03T17:47:36.890Z,102017.81
2023-03-03T17:50:18.218Z,102014.13
2023-03-03T17:53:02.438Z,102007.19
2023-03-03T17:55:54.790Z,102007.44
2023-03-03T17:58:54.749Z,102006.84
2023-03-03T18:01:31.262Z,102015.09
2023-03-03T18:04:27.632Z,102018.13
2023-03-03T18:07:22.450Z,102018.47
2023-03-03T18:10:22.696Z,102024.13
2023-03-03T18:13:00.050Z,102019.94
2023-03-03T18:15:40.331Z,102018.50
2023-03-03T18:18:26.085Z,102020.53
2023-03-03T18:21:04.634Z,102019.84
2023-03-03T18:23:39.780Z,102016.72
2023-03-03T18:26:37.845Z,102019.72
2023-03-03T18:29:22.617Z,102019.94
2023-03-03T18:32:20.783Z,102019.34
2023-03-03T18:34:48.507Z,102023.19
2023-03-03T18:37:37.448Z,102019.72
2023-03-03T18:40:35.785Z,102021.75
2023-03-03T18:43:36.883Z,102019.34
2023-03-03T18:46:04.711Z,102014.31
2023-03-03T18:48:49.730Z,102011.69
2023-03-03T18:52:13.710Z,102012.75
2023-03-03T18:54:41.421Z,102021.63
2023-03-03T18:57:18.458Z,102018.03
2023-03-03T18:59:58.618Z,102023.19
2023-03-03T19:02:36.058Z,102018.03
2023-03-03T19:05:20.751Z,102025.56
2023-03-03T19:07:53.122Z,102030.75
2023-03-03T19:10:54.855Z,102026.19
2023-03-03T19:13:44.569Z,102020.91
2023-03-03T19:16:28.858Z,102017.44
2023-03-03T19:19:02.952Z,102013.22
2023-03-03T19:21:34.710Z,102022.00
2023-03-03T19:24:04.649Z,102013.22
2023-03-03T19:26:57.010Z,102016.09
2023-03-03T19:30:01.583Z,102010.59
2023-03-03T19:32:44.124Z,102013.13
2023-03-03T19:35:26.926Z,102011.19
2023-03-03T19:38:04.710Z,102012.53
2023-03-03T19:40:38.224Z,102008.69
2023-03-03T19:43:17.433Z,102009.63
2023-03-03T19:45:58.157Z,102013.72
2023-03-03T19:48:34.652Z,102006.53
2023-03-03T19:51:14.360Z,102019.72
2023-03-03T19:53:53.708Z,102008.31
2023-03-03T19:56:29.690Z,102008.91
2023-03-03T19:59:08.054Z,102005.56
2023-03-03T20:01:48.894Z,102014.31
2023-03-03T20:04:50.617Z,102009.06
2023-03-03T20:07:29.858Z,102008.91
2023-03-03T20:10:08.266Z,102011.78
2023-03-03T20:13:00.129Z,102010.59
2023-03-03T20:15:33.439Z,102006.03
2023-03-03T20:18:23.458Z,102009.53
2023-03-03T20:21:02.471Z,102002.22
2023-03-03T20:23:39.215Z,102003.06
2023-03-03T20:26:15.995Z,102000.16
2023-03-03T20:29:03.723Z,101999.94
2023-03-03T20:31:39.204Z,101996.44
2023-03-03T20:34:14.896Z,101995.34
2023-03-03T20:36:54.871Z,101983.97
2023-03-03T20:39:39.312Z,101988.03
2023-03-03T20:42:19.082Z,101993.78
2023-03-03T20:45:01.766Z,101986.31
2023-03-03T20:47:41.523Z,101988.72
2023-03-03T20:50:18.891Z,101982.69
2023-03-03T20:52:57.099Z,101991.91
2023-03-03T20:55:32.472Z,101990.59
2023-03-03T20:58:07.569Z,101989.97
2023-03-03T21:00:43.546Z,101981.44
2023-03-03T21:03:21.123Z,101992.28
2023-03-03T21:05:58.630Z,101992.78
2023-03-03T21:08:46.458Z,101999.22
2023-03-03T21:11:14.984Z,102001.59
2023-03-03T21:13:45.387Z,101986.47
2023-03-03T21:16:28.991Z,102000.84
2023-03-03T21:18:58.248Z,101989.16
2023-03-03T21:21:26.606Z,101998.28
2023-03-03T21:23:54.322Z,101997.06
2023-03-03T21:26:51.274Z,101991.25
2023-03-03T21:29:23.137Z,101985.47
2023-03-03T21:31:52.145Z,101986.16
2023-03-03T21:34:31.028Z,101981.47
2023-03-03T21:37:00.043Z,101987.59
2023-03-03T21:39:30.686Z,101981.03
2023-03-03T21:42:01.797Z,101984.84
2023-03-03T21:44:36.417Z,101980.41
2023-03-03T21:47:04.795Z,101966.78
2023-03-03T21:49:32.554Z,101965.81
2023-03-03T21:52:00.755Z,101971.81
2023-03-03T21:54:29.314Z,101974.19
2023-03-03T21:56:56.918Z,101966.94
2023-03-03T21:59:24.788Z,101969.34
2023-03-03T22:01:53.786Z,101965.72
2023-03-03T22:04:21.364Z,101955.03
2023-03-03T22:06:48.967Z,101961.59
2023-03-03T22:09:16.601Z,101947.25
2023-03-03T22:11:44.324Z,101943.66
2023-03-03T22:14:12.209Z,101966.09
2023-03-03T22:16:40.191Z,101963.28
2023-03-03T22:19:10.161Z,101962.19
2023-03-03T22:21:38.835Z,101963.59
2023-03-03T22:24:07.305Z,101958.19
2023-03-03T22:26:35.152Z,101953.88
2023-03-03T22:29:02.879Z,101957.47
2023-03-03T22:31:30.522Z,101943.28
2023-03-03T22:33:58.644Z,101936.03
2023-03-03T22:36:27.803Z,101941.22
2023-03-03T22:38:55.438Z,101933.28
2023-03-03T22:41:23.023Z,101931.47
2023-03-03T22:43:50.743Z,101916.41
2023-03-03T22:46:18.456Z,101937.47
2023-03-03T22:48:46.175Z,101919.63
2023-03-03T22:51:13.764Z,101923.13
2023-03-03T22:53:42.766Z,101918.25
2023-03-03T22:56:10.462Z,101913.09
2023-03-03T22:58:38.075Z,101902.50
2023-03-03T23:01:06.083Z,101903.34
2023-03-03T23:03:34.079Z,101902.38
2023-03-03T23:06:01.754Z,101903.34
2023-03-03T23:08:29.360Z,101911.84
2023-03-03T23:10:58.492Z,101892.50
2023-03-03T23:13:27.052Z,101893.31
2023-03-03T23:15:58.405Z,101903.78
2023-03-03T23:18:26.162Z,101895.97
2023-03-03T23:20:53.740Z,101892.88
2023-03-03T23:23:21.342Z,101900.00
2023-03-03T23:25:49.386Z,101888.72
2023-03-03T23:28:19.248Z,101886.75
2023-03-03T23:30:46.880Z,101892.88
2023-03-03T23:33:14.716Z,101897.34
2023-03-03T23:35:42.577Z,101887.31
2023-03-03T23:38:15.183Z,101874.78
2023-03-03T23:40:43.127Z,101889.00
2023-03-03T23:43:11.330Z,101875.06
2023-03-03T23:45:40.830Z,101878.94
2023-03-03T23:48:08.642Z,101885.47
2023-03-03T23:50:37.168Z,101887.44
2023-03-03T23:53:05.367Z,101896.59
2023-03-03T23:55:33.003Z,101878.91
2023-03-03T23:58:00.601Z,101875.44
